Time;durP1;ratioP1;P1;durP2;ratioP2;P2;SDS_P1;SDS_P2;PMS_P1;PMS_P2;Temp;Humidity;BMP_temperature;BMP_pressure;BME280_temperature;BME280_humidity;BME280_pressure;Samples;Min_cycle;Max_cycle;Signal;HPM_P1;HPM_P2
2022/05/11 00:00:15;;;;;;;17.60;6.93;;;;;;;18.04;55.23;101271.88;4994296;28;20018;-77
2022/05/11 00:02:41;;;;;;;12.18;7.03;;;;;;;18.05;55.40;101268.38;4993706;28;20038;-77
2022/05/11 00:05:09;;;;;;;14.25;6.65;;;;;;;18.04;55.15;101269.25;4993251;28;20038;-77
2022/05/11 00:07:34;;;;;;;11.82;7.00;;;;;;;18.03;55.51;101276.28;4989717;28;20105;-77
2022/05/11 00:10:00;;;;;;;13.35;7.65;;;;;;;18.02;55.21;101274.50;4990204;28;20113;-75
2022/05/11 00:12:26;;;;;;;13.13;6.90;;;;;;;18.01;55.42;101262.19;4994096;28;20034;-75
2022/05/11 00:14:52;;;;;;;12.32;6.90;;;;;;;17.99;54.92;101257.84;4975958;28;20113;-75
2022/05/11 00:17:17;;;;;;;16.75;7.45;;;;;;;18.01;54.82;101253.41;4993999;28;20113;-75
2022/05/11 00:19:42;;;;;;;14.20;6.93;;;;;;;18.00;55.03;101254.28;4990265;28;20023;-75
2022/05/11 00:22:08;;;;;;;14.38;6.95;;;;;;;17.99;55.07;101255.19;4993964;28;20018;-74
2022/05/11 00:24:33;;;;;;;13.32;6.32;;;;;;;17.99;55.11;101247.28;4993227;28;20030;-74
2022/05/11 00:26:58;;;;;;;12.88;6.60;;;;;;;17.98;54.51;101246.38;4993940;28;20015;-74
2022/05/11 00:29:24;;;;;;;13.13;6.93;;;;;;;17.96;54.78;101244.63;4976336;28;20489;-74
2022/05/11 00:31:49;;;;;;;17.10;7.07;;;;;;;17.95;54.80;101245.53;4993646;28;20029;-74
2022/05/11 00:34:14;;;;;;;22.30;9.13;;;;;;;17.96;54.93;101236.72;4993098;28;20041;-74
2022/05/11 00:36:40;;;;;;;12.13;6.65;;;;;;;17.93;54.48;101236.72;4993158;28;20034;-74
2022/05/11 00:39:05;;;;;;;18.58;7.10;;;;;;;17.93;54.46;101242.91;4988119;28;20106;-75
2022/05/11 00:41:30;;;;;;;15.13;6.60;;;;;;;17.94;54.47;101234.06;4991061;28;20026;-74
2022/05/11 00:43:58;;;;;;;14.10;6.90;;;;;;;17.90;54.94;101233.22;4989071;28;20394;-75
2022/05/11 00:46:42;;;;;;;15.85;6.90;;;;;;;17.94;54.54;101227.94;4990044;28;20108;-75
2022/05/11 00:52:01;;;;;;;13.82;6.60;;;;;;;17.89;54.37;101217.38;4993666;28;20087;-75
2022/05/11 00:54:29;;;;;;;16.33;6.60;;;;;;;17.83;53.85;101214.72;4993186;28;20034;-74
2022/05/11 00:57:00;;;;;;;14.35;6.75;;;;;;;17.85;54.58;101219.09;4993520;28;20029;-74
2022/05/11 00:59:31;;;;;;;12.07;6.72;;;;;;;17.82;54.13;101216.47;4992593;28;20181;-74
2022/05/11 01:02:03;;;;;;;18.27;6.63;;;;;;;17.75;54.58;101216.50;4993367;28;20022;-75
2022/05/11 01:04:31;;;;;;;15.25;6.03;;;;;;;17.77;54.51;101215.63;4993237;28;20029;-74
2022/05/11 01:06:57;;;;;;;16.10;6.50;;;;;;;17.73;54.54;101213.88;4993366;28;20029;-75
2022/05/11 01:09:23;;;;;;;12.05;6.63;;;;;;;17.73;54.68;101208.59;4974868;28;20022;-75
2022/05/11 01:11:57;;;;;;;12.25;6.03;;;;;;;17.72;54.62;101206.81;4988749;28;20513;-74
2022/05/11 01:14:27;;;;;;;12.02;5.85;;;;;;;17.72;55.39;101207.69;4988602;28;20038;-75
2022/05/11 01:16:55;;;;;;;9.15;5.80;;;;;;;17.73;55.07;101198.06;4993075;28;20029;-74
2022/05/11 01:19:27;;;;;;;13.43;6.00;;;;;;;17.70;55.44;101198.91;4992904;28;20308;-74
2022/05/11 01:22:02;;;;;;;12.15;6.05;;;;;;;17.71;55.61;101191.88;4992971;28;20062;-74
2022/05/11 01:24:39;;;;;;;11.38;5.63;;;;;;;17.69;55.09;101185.75;4992148;28;20036;-74
2022/05/11 01:27:24;;;;;;;11.70;5.95;;;;;;;17.70;55.19;101187.50;4992673;28;20101;-74
2022/05/11 01:29:49;;;;;;;12.25;5.78;;;;;;;17.68;56.27;101189.25;4992846;28;20021;-74
2022/05/11 01:32:15;;;;;;;13.32;5.68;;;;;;;17.66;56.22;101193.66;4988723;28;20047;-75
2022/05/11 01:34:40;;;;;;;10.95;5.28;;;;;;;17.65;56.89;101187.50;4991635;28;20077;-74
2022/05/11 01:37:06;;;;;;;10.70;5.80;;;;;;;17.60;56.70;101191.91;4992743;28;20018;-74
2022/05/11 01:39:31;;;;;;;11.57;5.57;;;;;;;17.56;57.49;101191.00;4979322;28;20037;-74
2022/05/11 01:41:56;;;;;;;11.25;5.90;;;;;;;17.58;58.08;101182.22;4992627;28;20020;-75
2022/05/11 01:44:22;;;;;;;14.43;6.13;;;;;;;17.53;57.48;101179.59;4987762;28;20112;-74
2022/05/11 01:46:57;;;;;;;9.95;5.80;;;;;;;17.53;58.02;101179.59;4984142;28;20026;-74
2022/05/11 01:49:24;;;;;;;13.18;6.22;;;;;;;17.47;58.62;101185.75;4992204;28;20034;-74
2022/05/11 01:51:50;;;;;;;11.48;5.82;;;;;;;17.47;58.01;101188.38;4991906;28;20199;-75
2022/05/11 01:54:16;;;;;;;9.93;5.65;;;;;;;17.46;57.06;101186.59;4992017;28;20496;-75
2022/05/11 01:56:41;;;;;;;10.40;5.80;;;;;;;17.46;56.86;101183.97;4992016;28;20022;-74
2022/05/11 01:59:06;;;;;;;11.70;5.95;;;;;;;17.51;57.60;101179.59;4991375;28;20019;-77
2022/05/11 02:01:34;;;;;;;10.90;6.18;;;;;;;17.50;57.14;101176.97;4991601;28;20113;-77
2022/05/11 02:04:00;;;;;;;11.63;6.15;;;;;;;17.51;56.90;101176.97;4991127;28;20114;-77
2022/05/11 02:09:10;;;;;;;12.75;6.40;;;;;;;17.53;57.03;101172.56;4992003;28;20401;-77
2022/05/11 02:11:36;;;;;;;14.07;6.88;;;;;;;17.50;56.05;101175.19;4987634;28;20023;-77
2022/05/11 02:14:01;;;;;;;14.77;6.90;;;;;;;17.51;56.17;101182.22;4990431;28;20034;-77
2022/05/11 02:16:27;;;;;;;13.57;6.78;;;;;;;17.48;56.17;101171.69;4991942;28;20386;-77
2022/05/11 02:18:54;;;;;;;11.85;6.80;;;;;;;17.50;56.17;101169.94;4991921;28;20037;-77
2022/05/11 02:21:20;;;;;;;12.65;6.30;;;;;;;17.49;56.67;101170.78;4987335;28;20019;-77
2022/05/11 02:23:47;;;;;;;15.90;6.45;;;;;;;17.50;56.42;101164.66;4989530;28;20049;-77
2022/05/11 02:26:12;;;;;;;12.75;6.70;;;;;;;17.47;56.71;101169.94;4991618;28;20041;-77
2022/05/11 02:28:38;;;;;;;10.88;6.75;;;;;;;17.44;56.65;101163.78;4990947;28;20026;-77
2022/05/11 02:31:04;;;;;;;15.43;6.95;;;;;;;17.43;56.63;101160.25;4991742;28;20496;-77
2022/05/11 02:33:30;;;;;;;13.65;6.80;;;;;;;17.44;56.79;101169.03;4991538;28;20062;-77
2022/05/11 02:35:56;;;;;;;12.93;6.63;;;;;;;17.43;56.52;101164.66;4991682;28;20030;-77
2022/05/11 02:38:25;;;;;;;11.27;6.57;;;;;;;17.41;57.11;101156.78;4978177;28;20019;-77
2022/05/11 02:40:51;;;;;;;12.60;6.90;;;;;;;17.43;56.85;101157.63;4991581;28;20022;-77
2022/05/11 02:43:16;;;;;;;16.38;6.82;;;;;;;17.41;56.70;101167.31;4973935;28;20473;-77
2022/05/11 02:45:43;;;;;;;14.38;7.18;;;;;;;17.38;56.94;101162.91;4991565;28;20093;-77
2022/05/11 02:48:10;;;;;;;12.93;6.57;;;;;;;17.39;57.07;101163.78;4991216;28;20030;-77
2022/05/11 02:50:46;;;;;;;17.92;7.03;;;;;;;17.40;57.12;101164.66;4991590;28;20033;-77
2022/05/11 02:53:12;;;;;;;14.20;7.00;;;;;;;17.38;56.72;101162.03;4975013;28;20477;-77
2022/05/11 02:55:40;;;;;;;11.55;6.47;;;;;;;17.41;56.72;101161.13;4991579;28;20081;-77
2022/05/11 02:58:06;;;;;;;18.15;6.85;;;;;;;17.39;56.67;101161.13;4991180;28;20026;-77
2022/05/11 03:00:34;;;;;;;11.48;6.50;;;;;;;17.37;56.90;101157.63;4991307;28;20449;-77
2022/05/11 03:03:01;;;;;;;11.65;6.68;;;;;;;17.33;57.03;101159.38;4991616;28;20479;-76
2022/05/11 03:05:27;;;;;;;13.88;6.68;;;;;;;17.32;56.83;101159.38;4995002;28;20023;-77
2022/05/11 03:07:52;;;;;;;13.18;6.40;;;;;;;17.33;57.21;101150.59;4995353;28;20048;-77
2022/05/11 03:40:59;;;;;;;13.73;6.60;;;;;;;17.27;57.69;101119.00;4989615;28;20055;-77
2022/05/11 03:43:24;;;;;;;14.35;6.50;;;;;;;17.25;57.40;101118.09;4994859;28;20042;-77
2022/05/11 03:45:49;;;;;;;13.30;6.90;;;;;;;17.26;58.10;101117.25;4977183;28;20524;-77
2022/05/11 03:48:16;;;;;;;13.38;6.70;;;;;;;17.22;57.67;101116.38;4993350;28;20045;-77
2022/05/11 03:50:42;;;;;;;13.02;6.75;;;;;;;17.21;57.83;101119.88;4989876;28;20054;-77
2022/05/11 03:53:07;;;;;;;20.15;6.43;;;;;;;17.16;57.32;101111.97;4994570;28;20061;-77
2022/05/11 03:55:33;;;;;;;14.55;6.00;;;;;;;17.15;57.53;101107.59;4994723;28;20113;-77
2022/05/11 03:57:58;;;;;;;10.30;6.05;;;;;;;17.15;57.79;101107.59;4993921;28;20040;-77
2022/05/11 04:00:25;;;;;;;11.45;6.03;;;;;;;17.13;58.00;101109.34;4994406;28;20035;-77
2022/05/11 04:02:51;;;;;;;11.57;5.85;;;;;;;17.14;57.94;101113.72;4994395;28;20022;-77
2022/05/11 04:05:18;;;;;;;12.35;6.03;;;;;;;17.12;57.83;101115.50;4994327;28;20236;-77
2022/05/11 04:07:43;;;;;;;12.15;5.93;;;;;;;17.13;58.40;101111.09;4976440;28;20022;-77
2022/05/11 04:10:11;;;;;;;12.43;5.97;;;;;;;17.15;57.90;101111.97;4993795;28;20113;-77
2022/05/11 04:12:37;;;;;;;12.23;6.18;;;;;;;17.13;58.04;101112.00;4991699;28;20402;-77
2022/05/11 04:15:03;;;;;;;12.57;5.82;;;;;;;17.12;57.88;101110.22;4989580;28;20023;-77
2022/05/11 04:17:29;;;;;;;11.15;5.57;;;;;;;17.12;58.33;101104.94;4989382;28;20034;-77
2022/05/11 04:19:55;;;;;;;12.77;5.50;;;;;;;17.10;58.09;101108.47;4984577;28;20238;-77
2022/05/11 04:22:20;;;;;;;11.70;5.78;;;;;;;17.06;58.61;101106.69;4993833;28;20037;-77
2022/05/11 04:24:47;;;;;;;12.27;6.00;;;;;;;17.05;58.25;101105.81;4993694;28;20060;-77
2022/05/11 04:27:13;;;;;;;10.77;5.65;;;;;;;17.02;58.32;101100.56;4993890;28;20022;-77
2022/05/11 04:29:39;;;;;;;12.18;6.35;;;;;;;16.98;58.38;101099.66;4993999;28;20418;-77
2022/05/11 04:32:06;;;;;;;11.43;6.00;;;;;;;16.99;58.78;101104.06;4988075;28;20076;-77
2022/05/11 04:34:31;;;;;;;11.13;5.97;;;;;;;16.98;58.91;101102.28;4993848;28;20730;-77
2022/05/11 04:36:56;;;;;;;13.45;6.05;;;;;;;16.96;58.52;101100.53;4993732;28;20027;-77
2022/05/11 04:39:22;;;;;;;13.52;6.30;;;;;;;16.95;58.63;101104.06;4992298;28;20389;-77
2022/05/11 04:41:47;;;;;;;10.55;5.88;;;;;;;16.93;58.42;101092.63;4993135;28;20038;-77
2022/05/11 04:44:12;;;;;;;12.65;6.00;;;;;;;16.90;58.66;101095.25;4992163;28;20038;-77
2022/05/11 04:46:38;;;;;;;15.10;6.00;;;;;;;16.89;58.81;101097.03;4993022;28;20053;-77
2022/05/11 04:49:16;;;;;;;14.18;5.95;;;;;;;16.85;58.78;101100.50;4975842;28;20026;-77
2022/05/11 04:51:43;;;;;;;12.43;6.35;;;;;;;16.85;59.10;101101.38;4993542;28;20037;-77
2022/05/11 04:54:11;;;;;;;14.00;6.32;;;;;;;16.83;59.60;101105.75;4979018;28;20030;-77
2022/05/11 04:56:38;;;;;;;13.68;6.68;;;;;;;16.83;59.14;101105.75;4993427;28;20026;-77
2022/05/11 04:59:08;;;;;;;13.82;6.45;;;;;;;16.81;59.19;101101.34;4979142;28;20029;-77
2022/05/11 05:01:33;;;;;;;17.08;6.28;;;;;;;16.77;59.65;101096.97;4993023;28;20120;-77
2022/05/11 05:03:59;;;;;;;18.38;6.72;;;;;;;16.79;59.57;101104.00;4992309;28;20113;-77
2022/05/11 05:06:24;;;;;;;12.30;6.68;;;;;;;16.76;59.88;101104.00;4993202;28;20053;-77
2022/05/11 05:08:52;;;;;;;12.45;6.40;;;;;;;16.76;59.53;101104.00;4992418;28;20018;-77
2022/05/11 05:11:17;;;;;;;12.07;6.60;;;;;;;16.76;60.00;101104.00;4992462;28;20033;-77
2022/05/11 05:13:43;;;;;;;13.45;6.72;;;;;;;16.77;59.86;101108.38;4993013;28;20109;-77
2022/05/11 05:16:08;;;;;;;11.98;6.50;;;;;;;16.79;59.82;101106.63;4975677;28;20492;-77
2022/05/11 05:18:35;;;;;;;13.82;6.75;;;;;;;16.79;59.67;101104.00;4988375;28;20031;-77
2022/05/11 05:21:00;;;;;;;13.65;6.30;;;;;;;16.83;59.45;101110.16;4991767;28;20034;-77
2022/05/11 05:23:26;;;;;;;15.25;6.22;;;;;;;16.83;59.54;101116.28;4992776;28;20037;-77
2022/05/11 05:25:51;;;;;;;15.95;6.50;;;;;;;16.80;60.10;101113.66;4992374;28;20093;-77
2022/05/11 05:31:06;;;;;;;13.70;6.50;;;;;;;16.83;59.82;101115.41;4992886;28;20029;-78
2022/05/11 05:33:34;;;;;;;13.60;6.28;;;;;;;16.83;59.89;101121.53;4991572;28;20034;-77
2022/05/11 05:36:00;;;;;;;15.75;6.78;;;;;;;16.84;59.59;101119.78;4992238;28;20069;-77
2022/05/11 05:38:25;;;;;;;13.52;6.68;;;;;;;16.83;59.39;101112.78;4992548;28;20111;-77
2022/05/11 05:40:51;;;;;;;12.38;6.40;;;;;;;16.85;60.11;101116.28;4992493;28;20795;-77
2022/05/11 05:43:16;;;;;;;14.40;6.45;;;;;;;16.83;59.63;101118.06;4992252;28;20030;-77
2022/05/11 05:45:47;;;;;;;13.98;6.50;;;;;;;16.85;59.53;101121.56;4992637;28;20026;-77
2022/05/11 05:48:13;;;;;;;16.17;6.15;;;;;;;16.84;59.60;101120.69;4974202;28;20210;-77
2022/05/11 05:50:38;;;;;;;18.52;6.43;;;;;;;16.82;59.74;101132.94;4992431;28;20260;-78
2022/05/11 05:53:03;;;;;;;13.43;6.72;;;;;;;16.82;59.83;101124.19;4994685;28;20025;-77
2022/05/11 05:57:59;;;;;;;15.38;6.28;;;;;;;16.91;59.50;101128.63;5616007;22;20474;-76
2022/05/11 06:00:25;;;;;;;14.60;6.20;;;;;;;17.16;58.91;101132.16;4963381;28;20179;-77
2022/05/11 06:02:50;;;;;;;13.63;5.75;;;;;;;17.44;58.15;101133.06;4945049;28;21074;-77
2022/05/11 06:05:15;;;;;;;13.18;6.13;;;;;;;17.82;57.24;101128.63;4971699;28;20042;-78
2022/05/11 06:07:41;;;;;;;14.25;6.10;;;;;;;18.19;56.21;101133.81;4972661;28;20489;-79
2022/05/11 06:10:07;;;;;;;9.68;5.43;;;;;;;18.39;54.66;101125.84;4972587;28;20035;-78
2022/05/11 06:12:33;;;;;;;13.60;5.50;;;;;;;18.55;53.95;101130.19;4971859;28;20470;-79
2022/05/11 06:14:58;;;;;;;14.32;5.32;;;;;;;18.65;54.42;101127.47;4972429;28;20092;-78
2022/05/11 06:17:24;;;;;;;9.18;4.85;;;;;;;18.60;53.74;101131.03;4972581;28;20486;-78
2022/05/11 06:19:53;;;;;;;13.45;5.13;;;;;;;18.55;54.06;101127.53;4972469;28;20027;-78
2022/05/11 06:22:19;;;;;;;11.98;5.10;;;;;;;18.50;54.06;101123.16;4972380;28;20030;-78
2022/05/11 06:24:44;;;;;;;14.48;5.68;;;;;;;18.46;53.82;101122.28;4972259;28;20039;-78
2022/05/11 06:27:16;;;;;;;14.20;5.10;;;;;;;18.33;53.04;101117.97;4956380;28;20433;-78
2022/05/11 06:29:41;;;;;;;12.80;4.85;;;;;;;18.23;52.81;101117.09;4971715;28;20179;-80
2022/05/11 06:32:07;;;;;;;13.50;4.80;;;;;;;18.09;53.20;101111.91;4972334;28;20510;-78
2022/05/11 06:34:33;;;;;;;10.32;4.75;;;;;;;18.11;54.07;101114.53;4970446;28;20027;-77
2022/05/11 06:36:58;;;;;;;11.98;4.57;;;;;;;18.14;53.48;101104.84;4970053;28;20053;-78
2022/05/11 06:39:23;;;;;;;14.95;5.15;;;;;;;18.13;53.42;101113.63;4971781;28;20402;-78
2022/05/11 06:41:49;;;;;;;11.32;4.70;;;;;;;18.15;54.06;101114.50;4972186;28;20402;-77
2022/05/11 06:44:15;;;;;;;14.15;4.65;;;;;;;18.14;53.32;101111.88;4971247;28;20027;-78
2022/05/11 06:46:40;;;;;;;18.45;5.70;;;;;;;18.15;53.62;101106.59;4969818;28;20038;-77
2022/05/11 06:49:05;;;;;;;13.55;4.80;;;;;;;18.17;54.02;101104.81;4969421;28;20022;-77
2022/05/11 06:51:31;;;;;;;18.48;5.20;;;;;;;18.17;53.26;101103.94;4969458;28;20257;-78
2022/05/11 06:59:29;;;;;;;13.05;6.20;;;;;;;18.18;53.50;101111.84;4970707;28;20073;-78
2022/05/11 07:01:59;;;;;;;17.25;5.55;;;;;;;18.20;53.28;101106.56;4963594;28;20019;-77
2022/05/11 07:04:26;;;;;;;14.90;5.93;;;;;;;18.25;53.53;101108.31;4971729;28;20501;-78
2022/05/11 07:06:53;;;;;;;14.90;6.15;;;;;;;18.25;53.47;101108.31;4971430;28;20026;-76
2022/05/11 07:09:20;;;;;;;15.13;7.25;;;;;;;18.25;53.44;101110.09;4970454;28;20433;-77
2022/05/11 07:14:30;;;;;;;16.50;5.70;;;;;;;18.30;53.49;101112.69;4972165;28;20086;-77
2022/05/11 07:16:55;;;;;;;18.63;6.18;;;;;;;18.27;53.64;101110.94;4971937;28;20027;-77
2022/05/11 07:19:23;;;;;;;15.57;6.22;;;;;;;18.31;54.88;101114.47;4971789;28;20570;-78
2022/05/11 07:21:48;;;;;;;13.07;5.78;;;;;;;18.32;54.04;101119.72;4953458;28;20038;-78
2022/05/11 07:24:14;;;;;;;13.30;5.60;;;;;;;18.31;54.00;101106.53;4971556;28;20030;-77
2022/05/11 07:26:39;;;;;;;12.85;5.47;;;;;;;18.37;54.50;101107.38;4970876;28;20561;-80
2022/05/11 07:29:04;;;;;;;16.20;5.88;;;;;;;18.41;55.20;101103.84;4970603;28;20034;-80
2022/05/11 07:31:30;;;;;;;18.75;5.85;;;;;;;18.48;54.63;101114.38;4970919;28;20113;-80
2022/05/11 07:33:55;;;;;;;12.00;5.65;;;;;;;18.53;53.96;101108.19;4962749;28;20454;-80
2022/05/11 07:36:21;;;;;;;18.98;5.70;;;;;;;18.60;54.62;101119.59;4970879;28;20506;-81
2022/05/11 07:38:46;;;;;;;14.35;6.18;;;;;;;18.64;53.39;101109.88;4970127;28;20056;-80
2022/05/11 07:41:12;;;;;;;19.40;6.00;;;;;;;18.61;52.65;101108.16;4971437;28;20027;-80
2022/05/11 07:43:38;;;;;;;23.10;5.60;;;;;;;18.58;52.77;101114.31;4971700;28;20023;-79
2022/05/11 07:46:03;;;;;;;13.68;5.28;;;;;;;18.58;53.50;101116.97;4968392;28;20398;-80
2022/05/11 07:48:29;;;;;;;17.08;5.63;;;;;;;18.58;52.70;101114.31;4970520;28;20037;-80
2022/05/11 07:50:54;;;;;;;16.92;5.88;;;;;;;18.60;52.16;101112.53;4975200;28;20146;-80
2022/05/11 07:53:20;;;;;;;18.65;5.75;;;;;;;18.62;53.00;101111.66;4975044;28;20026;-80
2022/05/11 07:55:45;;;;;;;20.50;5.68;;;;;;;18.62;51.67;101122.22;4973449;28;20393;-81
2022/05/11 08:00:57;;;;;;;16.42;5.00;;;;;;;18.69;52.68;101119.53;4973810;28;20050;-73
2022/05/11 08:03:22;;;;;;;14.45;5.50;;;;;;;18.69;52.48;101119.53;4973979;28;20430;-75
2022/05/11 08:05:47;;;;;;;15.10;6.55;;;;;;;18.71;52.31;101122.16;4974404;28;20053;-74
2022/05/11 08:08:12;;;;;;;13.55;5.55;;;;;;;18.72;52.69;101119.50;4974705;28;20026;-74
2022/05/11 08:10:43;;;;;;;15.18;5.70;;;;;;;18.74;52.62;101122.13;4974375;28;20393;-74
2022/05/11 08:13:10;;;;;;;17.38;5.45;;;;;;;18.75;51.67;101127.41;4974743;28;20247;-73
2022/05/11 08:15:39;;;;;;;18.85;6.03;;;;;;;18.73;51.26;101117.78;4974736;28;20027;-74
2022/05/11 08:18:05;;;;;;;;;;;;;;;18.80;52.04;101127.41;4975020;28;20027;-73
2022/05/11 08:20:34;;;;;;;15.98;6.50;;;;;;;18.71;50.27;101119.53;4974487;28;20000;-75
2022/05/11 08:23:02;;;;;;;12.63;5.18;;;;;;;18.69;51.64;101116.88;4974559;28;20023;-74
2022/05/11 08:25:29;;;;;;;15.60;5.47;;;;;;;18.66;50.58;101116.06;4973846;28;20069;-75
2022/05/11 08:27:56;;;;;;;19.08;5.38;;;;;;;18.68;51.62;101119.53;4972712;28;20038;-74
2022/05/11 08:33:23;;;;;;;19.13;5.18;;;;;;;18.79;51.11;101119.50;4899015;28;20128;-76
2022/05/11 08:35:57;;;;;;;16.80;5.90;;;;;;;18.81;50.73;101113.28;4953249;28;20031;-76
2022/05/11 08:38:25;;;;;;;20.98;5.88;;;;;;;18.80;50.42;101108.94;4972258;28;20699;-77
2022/05/11 08:41:10;;;;;;;16.20;5.70;;;;;;;18.91;52.94;101111.50;4973694;28;20035;-76
2022/05/11 08:43:36;;;;;;;13.48;6.18;;;;;;;18.96;50.79;101109.72;4973480;28;20038;-76
2022/05/11 08:46:05;;;;;;;17.58;6.47;;;;;;;18.96;50.01;101111.47;4972964;28;20501;-76
2022/05/11 08:49:00;;;;;;;17.90;6.40;;;;;;;19.00;51.07;101115.84;4973463;28;20034;-76
2022/05/11 08:52:04;;;;;;;17.77;5.70;;;;;;;19.08;51.72;101111.41;4974045;28;20046;-77
2022/05/11 08:54:35;;;;;;;16.38;6.00;;;;;;;19.17;51.63;101111.31;4956669;28;20038;-76
2022/05/11 08:57:07;;;;;;;17.05;6.03;;;;;;;19.25;50.55;101114.78;4972288;28;20082;-75
2022/05/11 08:59:32;;;;;;;20.73;7.25;;;;;;;19.25;49.57;101103.34;4966505;28;20092;-75
2022/05/11 09:02:24;;;;;;;22.45;7.85;;;;;;;19.34;51.28;101118.25;4971816;28;20042;-75
2022/05/11 09:04:50;;;;;;;16.67;6.13;;;;;;;19.36;49.84;101101.47;4964060;28;20030;-75
2022/05/11 09:07:17;;;;;;;18.13;7.63;;;;;;;19.40;50.03;101110.28;4973707;28;20030;-74
2022/05/11 09:09:43;;;;;;;21.67;7.20;;;;;;;19.41;49.82;101102.31;4973497;28;20561;-74
2022/05/11 09:12:10;;;;;;;20.92;7.30;;;;;;;19.39;49.77;101096.19;4973152;28;20166;-74
2022/05/11 09:14:39;;;;;;;20.70;7.25;;;;;;;19.48;52.03;101081.13;4971901;28;20026;-74
2022/05/11 09:17:18;;;;;;;20.98;8.35;;;;;;;19.46;49.22;101086.41;4971770;28;20105;-73
2022/05/11 09:19:46;;;;;;;22.15;7.80;;;;;;;19.47;49.75;101088.19;4970371;28;20070;-74
2022/05/11 09:22:17;;;;;;;23.90;7.03;;;;;;;19.50;50.56;101092.56;4971672;28;20026;-74
2022/05/11 09:24:55;;;;;;;20.27;8.13;;;;;;;19.53;50.47;101079.31;4971633;28;20097;-74
2022/05/11 09:27:33;;;;;;;20.15;7.22;;;;;;;19.54;50.76;101083.72;4971677;28;20034;-74
2022/05/11 09:30:06;;;;;;;18.17;7.55;;;;;;;19.50;49.00;101085.50;4973404;28;20027;-74
2022/05/11 09:32:42;;;;;;;19.30;7.20;;;;;;;19.55;50.51;101088.09;4973244;28;20034;-74
2022/05/11 09:35:37;;;;;;;17.23;7.43;;;;;;;19.55;49.73;101098.66;4972207;28;20089;-74
2022/05/11 09:38:17;;;;;;;18.33;7.63;;;;;;;19.44;48.77;101080.28;4973371;28;20030;-73
2022/05/11 09:41:07;;;;;;;21.45;7.75;;;;;;;19.41;49.72;101080.31;4973039;28;20460;-74
2022/05/11 09:43:34;;;;;;;19.30;7.75;;;;;;;19.46;51.15;101086.41;4972971;28;20109;-73
2022/05/11 09:46:01;;;;;;;19.63;8.27;;;;;;;19.50;49.74;101079.34;4973188;28;20030;-74
2022/05/11 09:48:32;;;;;;;31.08;9.75;;;;;;;19.52;50.76;101078.41;4972977;28;20312;-74
2022/05/11 09:51:16;;;;;;;25.00;9.52;;;;;;;19.63;51.76;101079.19;4972109;28;20097;-73
2022/05/11 09:53:51;;;;;;;20.33;9.18;;;;;;;19.65;50.87;101071.25;4972936;28;20031;-74
2022/05/11 09:56:22;;;;;;;19.67;8.35;;;;;;;19.75;50.92;101066.75;4973005;28;20478;-74
2022/05/11 09:58:47;;;;;;;20.17;7.90;;;;;;;19.82;50.03;101065.81;4971759;28;20038;-74
2022/05/11 10:01:16;;;;;;;17.95;8.30;;;;;;;19.92;51.46;101070.09;4972704;28;20041;-74
2022/05/11 10:03:51;;;;;;;17.50;8.40;;;;;;;19.99;50.23;101063.00;4972678;28;20047;-73
2022/05/11 10:06:19;;;;;;;18.33;7.13;;;;;;;20.00;49.56;101067.38;4971526;28;20022;-74
2022/05/11 10:08:45;;;;;;;18.60;7.88;;;;;;;20.04;50.56;101073.50;4972683;28;20097;-74
2022/05/11 10:11:23;;;;;;;16.90;8.10;;;;;;;20.11;49.98;101068.13;4972604;28;20023;-74
2022/05/11 10:13:58;;;;;;;21.17;8.00;;;;;;;20.19;50.38;101073.34;4970074;28;20109;-74
2022/05/11 10:22:43;;;;;;;22.88;7.40;;;;;;;20.50;50.64;101062.31;4971727;28;20081;-75
2022/05/11 10:25:19;;;;;;;17.30;7.82;;;;;;;20.54;49.64;101069.34;4972299;28;20460;-74
2022/05/11 10:28:05;;;;;;;27.40;9.30;;;;;;;20.59;49.08;101053.38;4972407;28;20023;-74
2022/05/11 10:30:46;;;;;;;18.02;7.75;;;;;;;20.69;49.56;101048.84;4972266;28;20038;-75
2022/05/11 10:33:23;;;;;;;19.02;7.88;;;;;;;20.77;49.63;101050.50;4972303;28;20033;-74
2022/05/11 10:36:02;;;;;;;24.05;8.38;;;;;;;20.86;50.79;101048.59;4971701;28;20038;-74
2022/05/11 10:38:50;;;;;;;20.15;7.95;;;;;;;20.87;49.76;101039.75;4972162;28;20027;-74
2022/05/11 10:41:36;;;;;;;18.50;7.85;;;;;;;20.94;49.92;101031.69;4972061;28;20077;-73
2022/05/11 10:44:27;;;;;;;17.73;7.20;;;;;;;21.01;49.57;101027.13;4972009;28;20030;-73
2022/05/11 10:47:37;;;;;;;17.55;7.85;;;;;;;21.10;49.24;101034.97;4972075;28;20038;-74
2022/05/11 10:50:11;;;;;;;17.55;7.40;;;;;;;21.10;47.03;101026.09;4956016;28;20053;-73
2022/05/11 10:53:01;;;;;;;16.65;6.90;;;;;;;21.16;47.66;101024.25;4971763;28;20406;-74
2022/05/11 10:55:48;;;;;;;12.30;6.28;;;;;;;21.14;46.38;101028.66;4972118;28;20026;-73
2022/05/11 10:58:54;;;;;;;12.88;6.53;;;;;;;21.18;46.90;101029.50;4971219;28;20050;-74
2022/05/11 11:01:21;;;;;;;17.08;7.20;;;;;;;21.22;47.47;101025.91;4971863;28;20489;-73
2022/05/11 11:04:14;;;;;;;15.98;8.30;;;;;;;21.25;48.02;101025.00;4954627;28;20030;-74
2022/05/11 11:10:07;;;;;;;18.02;7.63;;;;;;;21.34;48.59;101025.66;4972179;28;20093;-74
2022/05/11 11:12:41;;;;;;;17.52;8.82;;;;;;;21.40;49.38;101015.88;4950468;28;20072;-74
2022/05/11 11:15:12;;;;;;;18.58;8.18;;;;;;;21.45;47.58;101006.94;4970951;28;20031;-74
2022/05/11 11:17:39;;;;;;;13.57;6.75;;;;;;;21.52;48.92;101002.41;4971955;28;20023;-73
2022/05/11 11:20:07;;;;;;;15.88;7.07;;;;;;;21.55;46.60;101012.94;4971818;28;20054;-74
2022/05/11 11:23:02;;;;;;;15.73;6.50;;;;;;;21.62;46.64;101005.75;4971827;28;20027;-74
2022/05/11 11:25:41;;;;;;;17.65;6.57;;;;;;;21.57;46.05;101011.16;4975635;28;20030;-74
2022/05/11 11:28:11;;;;;;;15.70;6.28;;;;;;;21.61;47.43;100996.94;4975066;28;20027;-74
2022/05/11 11:30:38;;;;;;;14.45;6.25;;;;;;;21.59;46.08;101003.16;4960648;28;20030;-74
2022/05/11 11:33:16;;;;;;;16.10;6.65;;;;;;;21.57;45.33;100999.69;4975338;28;20023;-73
2022/05/11 11:35:51;;;;;;;13.95;5.90;;;;;;;21.62;47.02;100996.00;4975626;28;20023;-74
2022/05/11 11:38:40;;;;;;;17.52;6.38;;;;;;;21.71;47.70;100993.19;4974678;28;20026;-74
2022/05/11 11:41:17;;;;;;;16.05;6.90;;;;;;;21.72;45.65;100991.41;4975134;28;20053;-75
2022/05/11 11:43:57;;;;;;;14.23;6.15;;;;;;;21.75;44.77;100993.97;4975244;28;20027;-73
2022/05/11 11:46:44;;;;;;;14.63;5.63;;;;;;;21.77;44.91;100983.34;4974595;28;20029;-74
2022/05/11 11:49:18;;;;;;;14.48;5.47;;;;;;;21.83;44.67;100988.53;4975043;28;20035;-74
2022/05/11 11:52:05;;;;;;;15.73;6.10;;;;;;;21.86;44.42;100977.88;4974662;28;20038;-74
2022/05/11 11:54:36;;;;;;;10.10;5.22;;;;;;;21.93;45.69;100982.13;4957409;28;20041;-73
2022/05/11 11:57:04;;;;;;;11.98;5.22;;;;;;;22.00;43.62;100985.50;4975191;28;20035;-74
2022/05/11 11:59:29;;;;;;;11.25;4.85;;;;;;;22.02;43.24;100976.63;4974992;28;20058;-74
2022/05/11 12:02:10;;;;;;;12.93;5.93;;;;;;;22.02;44.05;100981.06;4957307;28;20027;-74
2022/05/11 12:04:40;;;;;;;11.35;5.40;;;;;;;22.13;45.37;100975.50;4974788;28;20425;-74
2022/05/11 12:15:38;;;;;;;12.52;5.57;;;;;;;22.15;43.30;100961.28;4975094;28;20073;-74
2022/05/11 12:18:32;;;;;;;9.52;4.82;;;;;;;22.21;44.24;100954.97;4974185;28;20422;-73
2022/05/11 12:20:58;;;;;;;14.07;5.78;;;;;;;22.19;42.61;100954.16;4974675;28;20101;-73
2022/05/11 12:23:33;;;;;;;16.17;6.25;;;;;;;22.29;45.23;100960.09;4974595;28;20023;-73
2022/05/11 12:26:04;;;;;;;12.05;5.43;;;;;;;22.28;45.06;100951.28;4974758;28;20089;-74
2022/05/11 12:28:40;;;;;;;10.32;5.18;;;;;;;22.31;43.32;100951.19;4973742;28;20035;-75
2022/05/11 12:31:07;;;;;;;11.48;4.50;;;;;;;22.32;42.42;100955.63;4974522;28;20426;-74
2022/05/11 12:33:39;;;;;;;14.65;5.60;;;;;;;22.31;42.07;100956.50;4975079;28;20114;-74
2022/05/11 12:38:40;;;;;;;14.80;5.20;;;;;;;22.33;41.39;100938.81;5318934;23;20029;-76
2022/05/11 12:41:21;;;;;;;13.15;5.20;;;;;;;22.32;42.18;100939.72;4994596;23;20042;-75
2022/05/11 12:43:57;;;;;;;9.95;4.97;;;;;;;22.34;42.22;100934.34;4987274;28;20118;-76